createdAt,value
2019-04-26T00:01:03.692Z,2.57
2019-04-26T00:03:41.287Z,2.00
2019-04-26T00:06:12.414Z,2.00
2019-04-26T00:08:42.410Z,1.93
2019-04-26T00:11:29.147Z,2.10
2019-04-26T00:14:16.291Z,1.67
2019-04-26T00:16:52.642Z,1.90
2019-04-26T00:19:22.288Z,1.90
2019-04-26T00:21:51.569Z,1.57
2019-04-26T00:24:21.492Z,2.30
2019-04-26T00:26:50.712Z,1.83
2019-04-26T00:29:19.681Z,1.83
2019-04-26T00:31:48.640Z,1.80
2019-04-26T00:34:17.581Z,2.40
2019-04-26T00:36:46.486Z,2.23
2019-04-26T00:39:16.092Z,2.27
2019-04-26T00:41:46.088Z,2.10
2019-04-26T00:44:16.542Z,2.33
2019-04-26T00:46:47.737Z,2.60
2019-04-26T00:49:19.112Z,1.97
2019-04-26T00:51:48.911Z,2.60
2019-04-26T00:54:20.082Z,2.07
2019-04-26T00:56:50.024Z,1.63
2019-04-26T00:59:20.429Z,2.70
2019-04-26T01:01:53.322Z,1.87
2019-04-26T01:04:23.013Z,3.40
2019-04-26T01:06:53.556Z,2.70
2019-04-26T01:09:23.623Z,2.13
2019-04-26T01:11:52.728Z,1.97
2019-04-26T01:14:22.120Z,2.40
2019-04-26T01:16:51.018Z,2.23
2019-04-26T01:19:22.394Z,2.70
2019-04-26T01:21:55.057Z,2.33
2019-04-26T01:24:25.404Z,2.10
2019-04-26T01:26:56.571Z,2.70
2019-04-26T01:29:27.919Z,2.80
2019-04-26T01:32:05.514Z,2.53
2019-04-26T01:34:35.703Z,3.10
2019-04-26T01:37:04.810Z,2.70
2019-04-26T01:39:36.219Z,3.43
2019-04-26T01:42:11.991Z,2.93
2019-04-26T01:44:50.500Z,2.70
2019-04-26T01:47:19.944Z,3.00
2019-04-26T01:49:50.115Z,3.13
2019-04-26T01:52:19.115Z,3.00
2019-04-26T01:54:48.197Z,3.17
2019-04-26T01:57:17.607Z,3.40
2019-04-26T01:59:52.223Z,3.97
2019-04-26T02:02:34.658Z,3.43
2019-04-26T02:05:06.847Z,3.13
2019-04-26T02:07:39.338Z,3.20
2019-04-26T02:10:19.506Z,3.60
2019-04-26T02:12:50.026Z,3.57
2019-04-26T02:15:21.493Z,3.80
2019-04-26T02:17:53.154Z,3.97
2019-04-26T02:20:55.287Z,4.00
2019-04-26T02:23:32.885Z,3.87
2019-04-26T02:26:20.923Z,4.10
2019-04-26T02:28:50.471Z,4.57
2019-04-26T02:31:20.366Z,4.13
2019-04-26T02:33:50.070Z,4.07
2019-04-26T02:36:20.621Z,4.83
2019-04-26T02:38:51.191Z,3.90
2019-04-26T02:41:20.178Z,4.17
2019-04-26T02:43:52.127Z,4.20
2019-04-26T02:46:31.203Z,4.10
2019-04-26T02:49:19.226Z,4.50
2019-04-26T02:52:27.823Z,3.90
2019-04-26T02:55:03.856Z,3.80
2019-04-26T02:57:48.413Z,3.40
2019-04-26T03:00:19.432Z,3.70
2019-04-26T03:03:10.158Z,3.90
2019-04-26T03:05:42.006Z,3.90
2019-04-26T03:08:16.020Z,4.47
2019-04-26T03:10:50.321Z,3.83
2019-04-26T03:13:40.245Z,4.77
2019-04-26T03:16:35.161Z,4.83
2019-04-26T03:19:18.027Z,5.07
2019-04-26T03:22:09.249Z,4.47
2019-04-26T03:24:45.183Z,4.50
2019-04-26T03:27:46.799Z,5.83
2019-04-26T03:30:23.763Z,13.67
2019-04-26T03:33:43.498Z,5.90
2019-04-26T03:36:40.785Z,5.20
2019-04-26T03:39:18.664Z,4.70
2019-04-26T03:42:12.803Z,10.53
2019-04-26T03:44:53.830Z,5.03
2019-04-26T03:47:26.542Z,5.30
2019-04-26T03:50:07.273Z,4.00
2019-04-26T03:53:01.871Z,5.10
2019-04-26T03:55:53.306Z,5.60
2019-04-26T03:58:30.598Z,6.10
2019-04-26T04:01:05.270Z,7.50
2019-04-26T04:03:47.862Z,5.93
2019-04-26T04:06:23.847Z,5.47
2019-04-26T04:09:11.049Z,6.77
2019-04-26T04:11:48.822Z,6.07
2019-04-26T04:14:40.509Z,6.53
2019-04-26T04:17:33.411Z,6.20
2019-04-26T04:20:49.513Z,6.23
2019-04-26T04:23:45.008Z,6.43
2019-04-26T04:26:17.316Z,5.50
2019-04-26T04:29:05.644Z,5.77
2019-04-26T04:31:40.330Z,5.80
2019-04-26T04:34:22.555Z,5.70
2019-04-26T04:36:53.924Z,6.10
2019-04-26T04:40:00.476Z,7.43
2019-04-26T04:42:52.449Z,6.37
2019-04-26T04:46:16.406Z,6.07
2019-04-26T04:49:20.505Z,5.80
2019-04-26T04:52:12.562Z,6.47
2019-04-26T04:55:04.446Z,6.00
2019-04-26T04:57:52.860Z,7.30
2019-04-26T05:00:45.831Z,9.97
2019-04-26T05:03:48.881Z,8.30
2019-04-26T05:06:27.651Z,8.03
2019-04-26T05:09:03.663Z,8.10
2019-04-26T05:11:49.791Z,7.40
2019-04-26T05:14:31.156Z,8.23
2019-04-26T05:17:33.123Z,6.03
2019-04-26T05:20:29.083Z,6.73
2019-04-26T05:23:28.049Z,6.17
2019-04-26T05:26:41.865Z,7.30
2019-04-26T05:29:32.133Z,7.60
2019-04-26T05:32:32.979Z,6.87
2019-04-26T05:35:15.356Z,6.40
2019-04-26T05:38:18.052Z,5.53
2019-04-26T05:41:22.702Z,6.60
2019-04-26T05:44:14.005Z,8.07
2019-04-26T05:48:03.251Z,7.97
2019-04-26T05:51:23.919Z,6.70
2019-04-26T05:54:42.863Z,6.37
2019-04-26T05:57:39.380Z,5.93
2019-04-26T06:00:33.583Z,8.00
2019-04-26T06:03:44.973Z,9.40
2019-04-26T06:06:24.983Z,7.53
2019-04-26T06:09:20.880Z,8.10
2019-04-26T06:12:01.535Z,7.50
2019-04-26T06:14:58.874Z,6.63
2019-04-26T06:18:02.062Z,6.17
2019-04-26T06:20:55.883Z,6.53
2019-04-26T06:23:39.430Z,6.30
2019-04-26T06:26:35.509Z,5.80
2019-04-26T06:29:07.930Z,7.47
2019-04-26T06:31:55.923Z,7.00
2019-04-26T06:34:42.596Z,6.50
2019-04-26T06:37:27.112Z,5.93
2019-04-26T06:40:21.248Z,6.30
2019-04-26T06:43:16.106Z,6.43
2019-04-26T06:46:27.231Z,6.43
2019-04-26T06:49:33.559Z,6.37
2019-04-26T06:52:08.527Z,6.30
2019-04-26T06:54:48.760Z,6.57
2019-04-26T06:57:39.926Z,5.37
2019-04-26T07:00:22.465Z,5.00
2019-04-26T07:03:29.453Z,5.70
2019-04-26T07:06:02.789Z,5.10
2019-04-26T07:08:40.604Z,4.77
2019-04-26T07:12:19.944Z,5.63
2019-04-26T07:15:09.320Z,6.00
2019-04-26T07:18:04.687Z,6.20
2019-04-26T07:20:43.167Z,5.77
2019-04-26T07:24:03.994Z,6.27
2019-04-26T07:27:07.548Z,6.37
2019-04-26T07:30:23.725Z,5.97
2019-04-26T07:33:26.056Z,5.80
2019-04-26T07:36:12.029Z,6.40
2019-04-26T07:39:38.451Z,6.13
2019-04-26T07:42:50.039Z,5.73
2019-04-26T07:45:35.318Z,4.97
2019-04-26T07:48:53.048Z,5.13
2019-04-26T07:52:08.512Z,3.93
2019-04-26T07:55:39.950Z,4.03
2019-04-26T07:58:51.948Z,3.30
2019-04-26T08:01:55.388Z,3.73
2019-04-26T08:04:33.335Z,3.63
2019-04-26T08:07:10.887Z,3.60
2019-04-26T08:09:53.956Z,3.60
2019-04-26T08:12:19.136Z,3.10
2019-04-26T08:15:29.099Z,4.30
2019-04-26T08:18:10.746Z,4.03
2019-04-26T08:20:52.200Z,3.03
2019-04-26T08:23:38.588Z,4.03
2019-04-26T08:26:01.804Z,3.43
2019-04-26T08:28:35.956Z,4.00
2019-04-26T08:31:08.969Z,3.57
2019-04-26T08:33:48.523Z,4.00
2019-04-26T08:36:17.991Z,4.17
2019-04-26T08:38:48.818Z,5.37
2019-04-26T08:41:21.521Z,5.53
2019-04-26T08:44:09.757Z,5.20
2019-04-26T08:46:57.050Z,3.70
2019-04-26T08:49:35.041Z,4.20
2019-04-26T08:52:14.379Z,4.10
2019-04-26T08:54:43.580Z,3.47
2019-04-26T08:57:15.403Z,3.50
2019-04-26T08:59:48.128Z,4.60
2019-04-26T09:02:37.773Z,2.80
2019-04-26T09:05:33.051Z,3.80
2019-04-26T09:08:04.297Z,1.97
2019-04-26T09:10:39.306Z,2.20
2019-04-26T09:13:11.338Z,3.00
2019-04-26T09:15:55.810Z,3.40
2019-04-26T09:18:27.734Z,2.97
2019-04-26T09:20:55.751Z,2.80
2019-04-26T09:23:50.922Z,2.83
2019-04-26T09:26:26.079Z,3.40
2019-04-26T09:29:20.141Z,2.10
2019-04-26T09:31:54.480Z,3.37
2019-04-26T09:34:21.655Z,4.27
2019-04-26T09:36:50.687Z,3.80
2019-04-26T09:39:20.649Z,4.30
2019-04-26T09:41:50.283Z,3.80
2019-04-26T09:44:28.915Z,3.30
2019-04-26T09:47:21.155Z,4.40
2019-04-26T09:50:11.351Z,3.63
2019-04-26T09:52:45.872Z,4.70
2019-04-26T09:55:15.183Z,5.07
2019-04-26T09:57:44.511Z,4.70
2019-04-26T10:00:18.313Z,5.90
2019-04-26T10:02:47.602Z,6.30
2019-04-26T10:05:17.661Z,6.10
2019-04-26T10:07:47.263Z,4.73
2019-04-26T10:10:22.936Z,5.43
2019-04-26T10:13:01.415Z,5.20
2019-04-26T10:16:02.481Z,5.37
2019-04-26T10:18:31.828Z,6.73
2019-04-26T10:21:00.796Z,7.87
2019-04-26T10:23:29.975Z,6.40
2019-04-26T10:25:58.872Z,7.43
2019-04-26T10:28:27.862Z,7.00
2019-04-26T10:30:57.002Z,7.97
2019-04-26T10:33:26.128Z,8.20
2019-04-26T10:35:56.725Z,5.03
2019-04-26T10:38:26.185Z,4.90
2019-04-26T10:40:55.148Z,4.43
2019-04-26T10:43:24.211Z,3.50
2019-04-26T10:45:53.958Z,5.27
2019-04-26T10:48:24.292Z,6.73
2019-04-26T10:50:53.484Z,5.10
2019-04-26T10:53:33.791Z,5.10
2019-04-26T10:56:30.126Z,4.73
2019-04-26T10:59:06.020Z,5.60
2019-04-26T11:01:36.923Z,4.00
2019-04-26T11:04:05.965Z,5.50
2019-04-26T11:06:35.518Z,6.33
2019-04-26T11:09:06.755Z,5.43
2019-04-26T11:11:36.252Z,4.63
2019-04-26T11:14:05.490Z,5.40
2019-04-26T11:16:37.251Z,6.40
2019-04-26T11:19:07.302Z,5.43
2019-04-26T11:21:36.661Z,3.93
2019-04-26T11:24:05.763Z,4.17
2019-04-26T11:26:36.114Z,4.37
2019-04-26T11:29:05.307Z,4.60
2019-04-26T11:31:34.266Z,3.97
2019-04-26T11:34:05.558Z,4.07
2019-04-26T11:36:37.478Z,4.20
2019-04-26T11:39:07.485Z,4.10
2019-04-26T11:41:37.613Z,3.50
2019-04-26T11:44:06.808Z,3.93
2019-04-26T11:46:44.649Z,4.47
2019-04-26T11:49:08.168Z,5.80
2019-04-26T11:51:37.180Z,4.23
2019-04-26T11:54:06.148Z,3.60
2019-04-26T11:56:37.540Z,4.47
2019-04-26T11:59:05.911Z,3.20
2019-04-26T12:01:36.747Z,2.77
2019-04-26T12:04:30.876Z,2.83
2019-04-26T12:07:09.765Z,2.03
2019-04-26T12:09:41.663Z,2.80
2019-04-26T12:12:13.078Z,3.00
2019-04-26T12:14:41.193Z,3.50
2019-04-26T12:17:10.244Z,3.23
2019-04-26T12:19:39.084Z,3.30
2019-04-26T12:22:09.613Z,2.40
2019-04-26T12:24:39.303Z,2.80
2019-04-26T12:27:10.175Z,2.60
2019-04-26T12:29:39.040Z,2.00
2019-04-26T12:32:08.063Z,1.93
2019-04-26T12:34:37.164Z,1.90
2019-04-26T12:37:13.050Z,2.50
2019-04-26T12:39:42.442Z,3.07
2019-04-26T12:42:12.281Z,3.10
2019-04-26T12:44:56.211Z,2.30
2019-04-26T12:47:40.814Z,2.20
2019-04-26T12:50:10.085Z,2.20
2019-04-26T12:52:40.963Z,2.27
2019-04-26T12:55:13.898Z,2.13
2019-04-26T12:57:42.719Z,3.63
2019-04-26T13:00:21.189Z,2.40
2019-04-26T13:02:54.319Z,1.77
2019-04-26T13:05:22.774Z,2.67
2019-04-26T13:07:54.344Z,2.10
2019-04-26T13:10:51.692Z,2.70
2019-04-26T13:13:28.393Z,2.10
2019-04-26T13:16:17.436Z,1.83
2019-04-26T13:18:47.850Z,1.90
2019-04-26T13:21:17.170Z,1.93
2019-04-26T13:23:49.610Z,2.87
2019-04-26T13:26:22.820Z,2.53
2019-04-26T13:28:56.531Z,1.90
2019-04-26T13:31:31.505Z,1.90
2019-04-26T13:33:58.412Z,2.20
2019-04-26T13:36:30.636Z,1.97
2019-04-26T13:39:00.463Z,2.00
2019-04-26T13:41:29.488Z,2.30
2019-04-26T13:44:01.231Z,1.90
2019-04-26T13:46:43.815Z,2.43
2019-04-26T13:49:43.995Z,2.27
2019-04-26T13:52:13.349Z,2.20
2019-04-26T13:54:42.227Z,1.90
2019-04-26T13:57:11.245Z,1.87
2019-04-26T13:59:40.248Z,2.03
2019-04-26T14:02:11.768Z,1.93
2019-04-26T14:04:42.451Z,2.37
2019-04-26T14:07:11.732Z,2.63
2019-04-26T14:09:40.991Z,2.00
2019-04-26T14:12:18.455Z,2.17
2019-04-26T14:14:40.629Z,2.40
2019-04-26T14:17:09.813Z,2.10
2019-04-26T14:19:38.852Z,2.50
2019-04-26T14:22:08.375Z,1.80
2019-04-26T14:24:42.815Z,1.90
2019-04-26T14:27:17.539Z,1.90
2019-04-26T14:29:46.407Z,2.30
2019-04-26T14:32:15.454Z,2.40
2019-04-26T14:34:45.284Z,2.83
2019-04-26T14:37:15.436Z,2.17
2019-04-26T14:39:50.793Z,2.13
2019-04-26T14:42:15.750Z,2.40
2019-04-26T14:44:49.543Z,2.37
2019-04-26T14:47:17.958Z,2.47
2019-04-26T14:49:45.946Z,2.10
2019-04-26T14:52:14.880Z,2.00
2019-04-26T14:54:46.023Z,1.97
2019-04-26T14:57:21.388Z,2.90
2019-04-26T14:59:52.846Z,1.80
2019-04-26T15:02:43.319Z,2.30
2019-04-26T15:05:18.519Z,2.50
2019-04-26T15:07:50.934Z,2.20
2019-04-26T15:10:19.833Z,2.20
2019-04-26T15:12:52.845Z,2.17
2019-04-26T15:15:19.404Z,2.27
2019-04-26T15:17:48.501Z,1.80
2019-04-26T15:20:20.938Z,2.07
2019-04-26T15:22:50.010Z,3.40
2019-04-26T15:25:19.109Z,3.00
2019-04-26T15:27:48.147Z,3.03
2019-04-26T15:30:17.315Z,2.47
2019-04-26T15:32:46.235Z,2.40
2019-04-26T15:35:17.670Z,2.00
2019-04-26T15:37:46.029Z,2.40
2019-04-26T15:40:34.894Z,2.87
2019-04-26T15:43:14.585Z,2.23
2019-04-26T15:45:47.572Z,2.40
2019-04-26T15:48:34.635Z,2.13
2019-04-26T15:51:03.781Z,2.50
2019-04-26T15:53:33.286Z,2.20
2019-04-26T15:56:02.622Z,2.97
2019-04-26T15:58:31.823Z,2.07
2019-04-26T16:01:00.824Z,2.00
2019-04-26T16:03:29.686Z,2.70
2019-04-26T16:06:04.707Z,2.17
2019-04-26T16:08:33.962Z,1.53
2019-04-26T16:11:00.515Z,1.87
2019-04-26T16:13:29.508Z,2.10
2019-04-26T16:15:58.578Z,2.33
2019-04-26T16:18:27.688Z,1.97
2019-04-26T16:20:56.611Z,2.60
2019-04-26T16:23:38.122Z,2.30
2019-04-26T16:25:56.260Z,2.37
2019-04-26T16:28:47.223Z,1.70
2019-04-26T16:31:34.136Z,1.90
2019-04-26T16:34:10.541Z,3.33
2019-04-26T16:36:36.589Z,2.60
2019-04-26T16:39:09.240Z,1.97
2019-04-26T16:41:38.624Z,2.13
2019-04-26T16:44:07.780Z,1.93
2019-04-26T16:46:36.683Z,1.87
2019-04-26T16:49:07.475Z,1.93
2019-04-26T16:51:36.443Z,2.13
2019-04-26T16:54:08.582Z,1.80
2019-04-26T16:56:36.623Z,2.00
2019-04-26T16:59:14.268Z,1.60
2019-04-26T17:01:43.511Z,1.90
2019-04-26T17:04:11.306Z,1.60
2019-04-26T17:06:44.272Z,2.50
2019-04-26T17:09:10.940Z,2.67
2019-04-26T17:11:41.396Z,2.17
2019-04-26T17:14:13.081Z,2.17
2019-04-26T17:16:44.285Z,1.90
2019-04-26T17:19:13.766Z,2.50
2019-04-26T17:22:05.098Z,2.07
2019-04-26T17:24:47.057Z,2.50
2019-04-26T17:27:16.939Z,3.03
2019-04-26T17:29:46.053Z,4.20
2019-04-26T17:32:17.384Z,3.57
2019-04-26T17:34:45.991Z,3.77
2019-04-26T17:37:17.468Z,2.80
2019-04-26T17:39:47.652Z,3.17
2019-04-26T17:42:16.511Z,2.33
2019-04-26T17:44:45.471Z,1.97
2019-04-26T17:47:14.359Z,2.10
2019-04-26T17:49:44.024Z,2.97
2019-04-26T17:52:13.319Z,1.83
2019-04-26T17:54:47.461Z,1.80
2019-04-26T17:57:14.845Z,1.83
2019-04-26T17:59:47.685Z,1.60
2019-04-26T18:02:31.558Z,2.67
2019-04-26T18:04:58.084Z,1.30
2019-04-26T18:07:37.528Z,2.50
2019-04-26T18:09:48.126Z,5.63
2019-04-26T18:12:17.296Z,2.23
2019-04-26T18:14:46.412Z,2.17
2019-04-26T18:17:26.699Z,1.70
2019-04-26T18:20:07.875Z,3.57
2019-04-26T18:22:46.718Z,1.83
2019-04-26T18:25:15.631Z,2.33
2019-04-26T18:27:44.597Z,1.60
2019-04-26T18:30:14.403Z,2.63
2019-04-26T18:32:47.733Z,2.83
2019-04-26T18:35:16.789Z,2.40
2019-04-26T18:37:44.890Z,3.30
2019-04-26T18:40:13.952Z,4.47
2019-04-26T18:42:43.455Z,2.53
2019-04-26T18:45:14.012Z,3.80
2019-04-26T18:47:45.052Z,3.40
2019-04-26T18:50:16.014Z,4.37
2019-04-26T18:52:59.818Z,3.70
2019-04-26T18:55:30.362Z,3.50
2019-04-26T18:58:03.593Z,3.73
2019-04-26T19:00:35.441Z,3.50
2019-04-26T19:03:04.677Z,3.73
2019-04-26T19:05:33.858Z,4.70
2019-04-26T19:08:04.962Z,4.73
2019-04-26T19:10:34.355Z,3.87
2019-04-26T19:13:25.456Z,6.10
2019-04-26T19:16:03.562Z,4.33
2019-04-26T19:18:52.800Z,5.00
2019-04-26T19:21:43.775Z,4.43
2019-04-26T19:24:19.479Z,4.70
2019-04-26T19:26:49.670Z,5.90
2019-04-26T19:29:17.749Z,5.17
2019-04-26T19:31:45.502Z,6.00
2019-04-26T19:34:14.334Z,5.13
2019-04-26T19:36:43.296Z,4.50
2019-04-26T19:39:13.031Z,5.50
2019-04-26T19:41:42.326Z,5.00
2019-04-26T19:44:14.739Z,5.97
2019-04-26T19:46:53.928Z,5.17
2019-04-26T19:49:44.600Z,4.40
2019-04-26T19:52:27.853Z,3.90
2019-04-26T19:55:16.023Z,4.97
2019-04-26T19:58:02.758Z,5.87
2019-04-26T20:00:32.302Z,3.83
2019-04-26T20:03:01.689Z,4.13
2019-04-26T20:05:32.030Z,5.07
2019-04-26T20:08:02.917Z,4.80
2019-04-26T20:10:34.509Z,5.13
2019-04-26T20:13:02.775Z,5.70
2019-04-26T20:15:31.919Z,5.03
2019-04-26T20:18:03.758Z,4.93
2019-04-26T20:20:34.549Z,5.13
2019-04-26T20:23:05.896Z,3.53
2019-04-26T20:25:33.427Z,4.60
2019-04-26T20:28:03.145Z,4.37
2019-04-26T20:30:57.842Z,4.03
2019-04-26T20:33:26.685Z,4.60
2019-04-26T20:35:57.428Z,4.07
2019-04-26T20:38:27.790Z,4.40
2019-04-26T20:40:57.024Z,3.90
2019-04-26T20:43:26.794Z,4.27
2019-04-26T20:46:10.859Z,3.80
2019-04-26T20:48:30.079Z,3.70
2019-04-26T20:50:57.591Z,4.90
2019-04-26T20:53:26.604Z,4.13
2019-04-26T20:55:55.627Z,4.50
2019-04-26T20:58:24.712Z,4.30
2019-04-26T21:00:54.841Z,5.07
2019-04-26T21:03:27.624Z,4.90
2019-04-26T21:05:59.128Z,4.83
2019-04-26T21:08:26.856Z,4.93
2019-04-26T21:10:56.079Z,5.87
2019-04-26T21:13:30.792Z,6.47
2019-04-26T21:15:58.604Z,6.83
2019-04-26T21:18:28.047Z,5.70
2019-04-26T21:20:57.111Z,7.30
2019-04-26T21:23:26.080Z,5.80
2019-04-26T21:26:16.403Z,7.37
2019-04-26T21:28:54.389Z,5.70
2019-04-26T21:31:29.573Z,7.07
2019-04-26T21:34:18.047Z,5.40
2019-04-26T21:37:04.790Z,6.43
2019-04-26T21:39:47.702Z,7.13
2019-04-26T21:42:17.157Z,5.47
2019-04-26T21:44:51.579Z,5.87
2019-04-26T21:47:18.045Z,5.73
2019-04-26T21:49:46.847Z,6.90
2019-04-26T21:52:15.841Z,4.87
2019-04-26T21:54:48.353Z,4.90
2019-04-26T21:57:18.346Z,4.67
2019-04-26T21:59:46.495Z,5.73
2019-04-26T22:02:16.410Z,3.80
2019-04-26T22:04:45.290Z,2.60
2019-04-26T22:07:14.592Z,2.73
2019-04-26T22:10:05.189Z,2.83
2019-04-26T22:12:33.717Z,2.77
2019-04-26T22:15:16.285Z,2.50
2019-04-26T22:17:47.077Z,2.03
2019-04-26T22:20:20.792Z,2.13
2019-04-26T22:23:04.388Z,2.10
2019-04-26T22:25:35.312Z,5.47
2019-04-26T22:28:04.307Z,3.30
2019-04-26T22:30:33.252Z,3.43
2019-04-26T22:33:03.018Z,3.40
2019-04-26T22:35:32.109Z,3.70
2019-04-26T22:38:00.921Z,2.87
2019-04-26T22:40:30.256Z,3.63
2019-04-26T22:43:27.019Z,3.13
2019-04-26T22:46:04.944Z,3.60
2019-04-26T22:48:35.954Z,4.00
2019-04-26T22:51:05.121Z,4.43
2019-04-26T22:53:33.983Z,4.80
2019-04-26T22:56:04.908Z,4.57
2019-04-26T22:58:33.839Z,4.47
2019-04-26T23:01:05.993Z,4.87
2019-04-26T23:03:36.596Z,3.60
2019-04-26T23:06:07.861Z,4.53
2019-04-26T23:08:38.155Z,3.93
2019-04-26T23:11:09.103Z,4.33
2019-04-26T23:13:55.751Z,4.90
2019-04-26T23:16:44.721Z,3.37
2019-04-26T23:19:33.443Z,3.20
2019-04-26T23:22:03.999Z,3.27
2019-04-26T23:24:32.998Z,3.10
2019-04-26T23:27:01.815Z,3.27
2019-04-26T23:29:30.627Z,6.20
2019-04-26T23:31:59.518Z,2.37
2019-04-26T23:34:28.507Z,3.37
2019-04-26T23:36:57.358Z,3.07
2019-04-26T23:39:26.194Z,2.27
2019-04-26T23:41:55.091Z,2.73
2019-04-26T23:44:23.950Z,2.40
2019-04-26T23:46:54.861Z,2.27
2019-04-26T23:49:25.333Z,1.70
2019-04-26T23:51:54.207Z,2.17
2019-04-26T23:54:23.901Z,2.17
2019-04-26T23:56:57.367Z,2.00
2019-04-26T23:59:24.819Z,2.20
